Sammamish, Washington
Current Conditions -  °F | °C
As of 10:53 AM on Monday 20 Oct 2014 (Local Time) from KRNT Reporting Station
Overcast Overcast  
Wind Chill: 61°   Ceiling: 1500
Heat Index: 61°   Visibility: 7mi
Dew Point: 58°   Wind: 6mph
Humidity: 90%   Direction: 150°SSE
Pressure: 29.77"   Gusts: NA
Location:  47.63°N, 122.03°W
Report Text: KRNT 201753Z 15005KT 7SM BKN015 BKN024 OVC080 16/14 A2977 RMK AO2 SLP085 60011 T01610144 10161 20144 53016
Loading
Personal Weather Stations






























Interactive Weather Map New forecast layout! Learn more

10-Day Weather Forecast

Advertisements
Track Severe Weather on mobile